sensor_id;sensor_type;location;lat;lon;timestamp;temperature;humidity
23499;DHT22;11926;48.120;11.562;2023-10-09T00:01:45;14.20;96.10
23499;DHT22;11926;48.120;11.562;2023-10-09T00:04:32;14.20;96.20
23499;DHT22;11926;48.120;11.562;2023-10-09T00:07:24;14.20;96.20
23499;DHT22;11926;48.120;11.562;2023-10-09T00:10:11;14.10;96.30
23499;DHT22;11926;48.120;11.562;2023-10-09T00:12:59;14.10;96.30
23499;DHT22;11926;48.120;11.562;2023-10-09T00:15:46;14.10;96.40
23499;DHT22;11926;48.120;11.562;2023-10-09T00:18:39;14.10;96.40
23499;DHT22;11926;48.120;11.562;2023-10-09T00:21:27;14.10;96.50
23499;DHT22;11926;48.120;11.562;2023-10-09T00:24:22;14.10;96.60
23499;DHT22;11926;48.120;11.562;2023-10-09T00:27:10;14.10;96.60
23499;DHT22;11926;48.120;11.562;2023-10-09T00:29:59;14.10;97.00
23499;DHT22;11926;48.120;11.562;2023-10-09T00:32:46;14.10;96.70
23499;DHT22;11926;48.120;11.562;2023-10-09T00:35:45;14.10;96.70
23499;DHT22;11926;48.120;11.562;2023-10-09T00:38:40;14.10;96.70
23499;DHT22;11926;48.120;11.562;2023-10-09T00:41:33;14.10;96.70
23499;DHT22;11926;48.120;11.562;2023-10-09T00:44:21;14.10;96.80
23499;DHT22;11926;48.120;11.562;2023-10-09T00:47:09;14.10;96.90
23499;DHT22;11926;48.120;11.562;2023-10-09T00:50:10;14.10;97.00
23499;DHT22;11926;48.120;11.562;2023-10-09T00:53:07;14.10;97.10
23499;DHT22;11926;48.120;11.562;2023-10-09T00:55:59;14.10;97.10
23499;DHT22;11926;48.120;11.562;2023-10-09T00:58:59;14.10;97.10
23499;DHT22;11926;48.120;11.562;2023-10-09T01:01:54;14.10;97.20
23499;DHT22;11926;48.120;11.562;2023-10-09T01:04:44;14.10;97.30
23499;DHT22;11926;48.120;11.562;2023-10-09T01:07:31;14.10;97.30
23499;DHT22;11926;48.120;11.562;2023-10-09T01:10:18;14.10;97.40
23499;DHT22;11926;48.120;11.562;2023-10-09T01:13:09;14.10;97.50
23499;DHT22;11926;48.120;11.562;2023-10-09T01:15:58;14.10;97.50
23499;DHT22;11926;48.120;11.562;2023-10-09T01:18:48;14.10;97.50
23499;DHT22;11926;48.120;11.562;2023-10-09T01:21:36;14.00;97.50
23499;DHT22;11926;48.120;11.562;2023-10-09T01:24:27;14.00;97.60
23499;DHT22;11926;48.120;11.562;2023-10-09T01:27:17;14.00;97.70
23499;DHT22;11926;48.120;11.562;2023-10-09T01:30:10;14.00;97.70
23499;DHT22;11926;48.120;11.562;2023-10-09T01:33:00;13.90;97.70
23499;DHT22;11926;48.120;11.562;2023-10-09T01:35:57;14.00;97.80
23499;DHT22;11926;48.120;11.562;2023-10-09T01:38:45;13.90;97.80
23499;DHT22;11926;48.120;11.562;2023-10-09T01:41:36;14.00;97.90
23499;DHT22;11926;48.120;11.562;2023-10-09T01:44:33;14.00;97.90
23499;DHT22;11926;48.120;11.562;2023-10-09T01:47:21;14.00;97.90
23499;DHT22;11926;48.120;11.562;2023-10-09T01:50:09;14.00;97.90
23499;DHT22;11926;48.120;11.562;2023-10-09T01:53:07;14.00;97.90
23499;DHT22;11926;48.120;11.562;2023-10-09T01:55:54;14.00;97.90
23499;DHT22;11926;48.120;11.562;2023-10-09T01:58:44;13.90;98.00
23499;DHT22;11926;48.120;11.562;2023-10-09T02:01:32;13.90;98.10
23499;DHT22;11926;48.120;11.562;2023-10-09T02:04:20;13.90;98.20
23499;DHT22;11926;48.120;11.562;2023-10-09T02:07:07;13.90;98.70
23499;DHT22;11926;48.120;11.562;2023-10-09T02:09:55;13.90;98.30
23499;DHT22;11926;48.120;11.562;2023-10-09T02:12:43;13.90;98.30
23499;DHT22;11926;48.120;11.562;2023-10-09T02:15:35;13.90;98.40
23499;DHT22;11926;48.120;11.562;2023-10-09T02:18:38;13.90;98.50
23499;DHT22;11926;48.120;11.562;2023-10-09T02:21:39;13.90;98.50
23499;DHT22;11926;48.120;11.562;2023-10-09T02:24:27;13.90;98.50
23499;DHT22;11926;48.120;11.562;2023-10-09T02:27:36;13.90;98.60
23499;DHT22;11926;48.120;11.562;2023-10-09T02:30:31;13.90;98.60
23499;DHT22;11926;48.120;11.562;2023-10-09T02:33:23;13.90;98.60
23499;DHT22;11926;48.120;11.562;2023-10-09T02:36:14;13.90;98.60
23499;DHT22;11926;48.120;11.562;2023-10-09T02:39:01;13.90;98.50
23499;DHT22;11926;48.120;11.562;2023-10-09T02:41:53;13.80;98.50
23499;DHT22;11926;48.120;11.562;2023-10-09T02:44:44;13.80;98.60
23499;DHT22;11926;48.120;11.562;2023-10-09T02:47:36;13.80;98.60
23499;DHT22;11926;48.120;11.562;2023-10-09T02:50:26;13.70;98.70
23499;DHT22;11926;48.120;11.562;2023-10-09T02:53:14;13.70;98.70
23499;DHT22;11926;48.120;11.562;2023-10-09T02:56:14;13.70;98.70
23499;DHT22;11926;48.120;11.562;2023-10-09T02:59:04;13.70;98.70
23499;DHT22;11926;48.120;11.562;2023-10-09T03:01:52;13.60;98.70
23499;DHT22;11926;48.120;11.562;2023-10-09T03:04:40;13.60;98.90
23499;DHT22;11926;48.120;11.562;2023-10-09T03:07:28;13.60;98.90
23499;DHT22;11926;48.120;11.562;2023-10-09T03:10:16;13.60;98.80
23499;DHT22;11926;48.120;11.562;2023-10-09T03:13:03;13.60;98.80
23499;DHT22;11926;48.120;11.562;2023-10-09T03:15:51;13.60;98.90
23499;DHT22;11926;48.120;11.562;2023-10-09T03:18:39;13.60;98.90
23499;DHT22;11926;48.120;11.562;2023-10-09T03:21:28;13.60;98.90
23499;DHT22;11926;48.120;11.562;2023-10-09T03:24:17;13.50;98.90
23499;DHT22;11926;48.120;11.562;2023-10-09T03:27:10;13.50;98.90
23499;DHT22;11926;48.120;11.562;2023-10-09T03:29:57;13.40;98.90
23499;DHT22;11926;48.120;11.562;2023-10-09T03:32:44;13.50;99.00
23499;DHT22;11926;48.120;11.562;2023-10-09T03:35:36;13.40;99.00
23499;DHT22;11926;48.120;11.562;2023-10-09T03:38:25;13.40;99.10
23499;DHT22;11926;48.120;11.562;2023-10-09T03:41:16;13.40;99.20
23499;DHT22;11926;48.120;11.562;2023-10-09T03:44:04;13.40;99.30
23499;DHT22;11926;48.120;11.562;2023-10-09T03:46:52;13.40;99.30
23499;DHT22;11926;48.120;11.562;2023-10-09T03:49:39;13.50;99.30
23499;DHT22;11926;48.120;11.562;2023-10-09T03:52:27;13.50;99.30
23499;DHT22;11926;48.120;11.562;2023-10-09T03:55:17;13.50;99.30
23499;DHT22;11926;48.120;11.562;2023-10-09T03:58:07;13.50;99.30
23499;DHT22;11926;48.120;11.562;2023-10-09T04:00:58;13.50;99.30
23499;DHT22;11926;48.120;11.562;2023-10-09T04:03:46;13.50;99.30
23499;DHT22;11926;48.120;11.562;2023-10-09T04:06:33;13.50;99.10
23499;DHT22;11926;48.120;11.562;2023-10-09T04:09:23;13.50;99.10
23499;DHT22;11926;48.120;11.562;2023-10-09T04:12:25;13.50;99.10
23499;DHT22;11926;48.120;11.562;2023-10-09T04:15:18;13.40;99.10
23499;DHT22;11926;48.120;11.562;2023-10-09T04:18:09;13.40;99.10
23499;DHT22;11926;48.120;11.562;2023-10-09T04:21:01;13.40;99.20
23499;DHT22;11926;48.120;11.562;2023-10-09T04:24:09;13.30;99.20
23499;DHT22;11926;48.120;11.562;2023-10-09T04:27:11;13.30;99.60
23499;DHT22;11926;48.120;11.562;2023-10-09T04:29:59;13.30;99.30
23499;DHT22;11926;48.120;11.562;2023-10-09T04:32:48;13.30;99.30
23499;DHT22;11926;48.120;11.562;2023-10-09T04:35:35;13.30;99.30
23499;DHT22;11926;48.120;11.562;2023-10-09T04:38:24;13.30;99.40
23499;DHT22;11926;48.120;11.562;2023-10-09T04:41:12;13.20;99.30
23499;DHT22;11926;48.120;11.562;2023-10-09T04:44:13;13.30;99.40
23499;DHT22;11926;48.120;11.562;2023-10-09T04:47:06;13.30;99.40
23499;DHT22;11926;48.120;11.562;2023-10-09T04:50:08;13.30;99.50
23499;DHT22;11926;48.120;11.562;2023-10-09T04:52:57;13.30;99.50
23499;DHT22;11926;48.120;11.562;2023-10-09T04:56:00;13.30;99.50
23499;DHT22;11926;48.120;11.562;2023-10-09T04:58:51;13.30;99.60
23499;DHT22;11926;48.120;11.562;2023-10-09T05:01:49;13.30;99.70
23499;DHT22;11926;48.120;11.562;2023-10-09T05:04:46;13.30;99.60
23499;DHT22;11926;48.120;11.562;2023-10-09T05:07:38;13.30;99.50
23499;DHT22;11926;48.120;11.562;2023-10-09T05:10:40;13.30;99.60
23499;DHT22;11926;48.120;11.562;2023-10-09T05:13:40;13.30;99.60
23499;DHT22;11926;48.120;11.562;2023-10-09T05:16:29;13.30;99.70
23499;DHT22;11926;48.120;11.562;2023-10-09T05:19:20;13.30;99.70
23499;DHT22;11926;48.120;11.562;2023-10-09T05:22:19;13.30;99.70
23499;DHT22;11926;48.120;11.562;2023-10-09T05:25:19;13.20;99.70
23499;DHT22;11926;48.120;11.562;2023-10-09T05:28:26;13.20;99.80
23499;DHT22;11926;48.120;11.562;2023-10-09T05:31:34;13.20;99.80
23499;DHT22;11926;48.120;11.562;2023-10-09T05:34:44;13.20;99.80
23499;DHT22;11926;48.120;11.562;2023-10-09T05:37:46;13.20;99.90
23499;DHT22;11926;48.120;11.562;2023-10-09T05:40:43;13.20;99.80
23499;DHT22;11926;48.120;11.562;2023-10-09T05:43:31;13.20;99.90
23499;DHT22;11926;48.120;11.562;2023-10-09T05:46:36;13.20;99.90
23499;DHT22;11926;48.120;11.562;2023-10-09T05:49:23;13.20;99.90
23499;DHT22;11926;48.120;11.562;2023-10-09T05:52:10;13.20;99.90
23499;DHT22;11926;48.120;11.562;2023-10-09T05:55:11;13.30;99.90
23499;DHT22;11926;48.120;11.562;2023-10-09T05:58:30;13.30;99.90
23499;DHT22;11926;48.120;11.562;2023-10-09T06:01:48;13.30;99.90
23499;DHT22;11926;48.120;11.562;2023-10-09T06:04:52;13.30;99.90
23499;DHT22;11926;48.120;11.562;2023-10-09T06:07:41;13.40;99.90
23499;DHT22;11926;48.120;11.562;2023-10-09T06:10:48;13.40;99.90
23499;DHT22;11926;48.120;11.562;2023-10-09T06:13:53;13.40;99.90
23499;DHT22;11926;48.120;11.562;2023-10-09T06:16:50;13.50;99.90
23499;DHT22;11926;48.120;11.562;2023-10-09T06:19:46;13.60;99.90
23499;DHT22;11926;48.120;11.562;2023-10-09T06:22:35;13.70;99.90
23499;DHT22;11926;48.120;11.562;2023-10-09T06:25:43;13.80;99.90
23499;DHT22;11926;48.120;11.562;2023-10-09T06:28:37;14.00;99.90
23499;DHT22;11926;48.120;11.562;2023-10-09T06:31:37;14.10;99.90
23499;DHT22;11926;48.120;11.562;2023-10-09T06:34:41;14.30;99.90
23499;DHT22;11926;48.120;11.562;2023-10-09T06:37:32;14.40;99.90
23499;DHT22;11926;48.120;11.562;2023-10-09T06:40:24;14.50;99.90
23499;DHT22;11926;48.120;11.562;2023-10-09T06:43:32;14.70;99.90
23499;DHT22;11926;48.120;11.562;2023-10-09T06:46:25;14.80;99.90
23499;DHT22;11926;48.120;11.562;2023-10-09T06:49:32;15.00;99.80
23499;DHT22;11926;48.120;11.562;2023-10-09T06:52:22;15.10;99.40
23499;DHT22;11926;48.120;11.562;2023-10-09T06:55:35;15.20;99.10
23499;DHT22;11926;48.120;11.562;2023-10-09T06:58:34;15.40;98.70
23499;DHT22;11926;48.120;11.562;2023-10-09T07:01:33;15.60;98.50
23499;DHT22;11926;48.120;11.562;2023-10-09T07:04:28;15.70;98.20
23499;DHT22;11926;48.120;11.562;2023-10-09T07:07:31;15.80;97.90
23499;DHT22;11926;48.120;11.562;2023-10-09T07:10:22;15.90;97.50
23499;DHT22;11926;48.120;11.562;2023-10-09T07:13:25;16.10;97.10
23499;DHT22;11926;48.120;11.562;2023-10-09T07:16:14;16.30;96.70
23499;DHT22;11926;48.120;11.562;2023-10-09T07:19:21;16.40;96.30
23499;DHT22;11926;48.120;11.562;2023-10-09T07:22:22;16.60;96.20
23499;DHT22;11926;48.120;11.562;2023-10-09T07:25:17;16.70;95.60
23499;DHT22;11926;48.120;11.562;2023-10-09T07:28:14;16.80;95.30
23499;DHT22;11926;48.120;11.562;2023-10-09T07:31:26;16.80;94.80
23499;DHT22;11926;48.120;11.562;2023-10-09T07:34:16;16.90;94.50
23499;DHT22;11926;48.120;11.562;2023-10-09T07:37:38;17.00;94.10
23499;DHT22;11926;48.120;11.562;2023-10-09T07:40:29;17.00;93.90
23499;DHT22;11926;48.120;11.562;2023-10-09T07:43:38;17.20;93.40
23499;DHT22;11926;48.120;11.562;2023-10-09T07:46:31;17.40;93.30
23499;DHT22;11926;48.120;11.562;2023-10-09T07:49:19;17.50;93.60
23499;DHT22;11926;48.120;11.562;2023-10-09T07:52:11;17.90;92.40
23499;DHT22;11926;48.120;11.562;2023-10-09T07:54:59;18.20;91.60
23499;DHT22;11926;48.120;11.562;2023-10-09T07:57:53;18.50;91.10
23499;DHT22;11926;48.120;11.562;2023-10-09T08:00:40;18.70;90.40
23499;DHT22;11926;48.120;11.562;2023-10-09T08:03:37;19.00;89.70
23499;DHT22;11926;48.120;11.562;2023-10-09T08:06:24;19.20;87.70
23499;DHT22;11926;48.120;11.562;2023-10-09T08:09:54;19.40;86.70
23499;DHT22;11926;48.120;11.562;2023-10-09T08:12:59;19.70;85.50
23499;DHT22;11926;48.120;11.562;2023-10-09T08:16:06;19.80;84.20
23499;DHT22;11926;48.120;11.562;2023-10-09T08:19:05;20.00;83.50
23499;DHT22;11926;48.120;11.562;2023-10-09T08:22:06;20.20;82.60
23499;DHT22;11926;48.120;11.562;2023-10-09T08:25:29;20.30;82.00
23499;DHT22;11926;48.120;11.562;2023-10-09T08:28:18;20.50;81.10
23499;DHT22;11926;48.120;11.562;2023-10-09T08:31:26;20.70;80.00
23499;DHT22;11926;48.120;11.562;2023-10-09T08:34:33;20.80;79.20
23499;DHT22;11926;48.120;11.562;2023-10-09T08:37:37;21.00;79.40
23499;DHT22;11926;48.120;11.562;2023-10-09T08:40:30;21.20;78.00
23499;DHT22;11926;48.120;11.562;2023-10-09T08:43:21;21.30;76.90
23499;DHT22;11926;48.120;11.562;2023-10-09T08:46:09;21.50;76.10
23499;DHT22;11926;48.120;11.562;2023-10-09T08:48:59;21.70;74.70
23499;DHT22;11926;48.120;11.562;2023-10-09T08:51:52;21.80;73.90
23499;DHT22;11926;48.120;11.562;2023-10-09T08:54:39;21.80;73.20
23499;DHT22;11926;48.120;11.562;2023-10-09T08:57:26;21.80;73.40
23499;DHT22;11926;48.120;11.562;2023-10-09T09:00:18;21.90;73.20
23499;DHT22;11926;48.120;11.562;2023-10-09T09:03:09;21.90;72.80
23499;DHT22;11926;48.120;11.562;2023-10-09T09:05:59;21.90;72.60
23499;DHT22;11926;48.120;11.562;2023-10-09T09:08:50;22.00;72.60
23499;DHT22;11926;48.120;11.562;2023-10-09T09:11:45;21.90;72.60
23499;DHT22;11926;48.120;11.562;2023-10-09T09:14:36;21.90;72.10
23499;DHT22;11926;48.120;11.562;2023-10-09T09:17:32;22.00;71.50
23499;DHT22;11926;48.120;11.562;2023-10-09T09:20:23;22.00;71.10
23499;DHT22;11926;48.120;11.562;2023-10-09T09:23:13;22.10;70.50
23499;DHT22;11926;48.120;11.562;2023-10-09T09:26:02;22.30;69.80
23499;DHT22;11926;48.120;11.562;2023-10-09T09:28:57;22.40;69.70
23499;DHT22;11926;48.120;11.562;2023-10-09T09:31:52;22.50;68.90
23499;DHT22;11926;48.120;11.562;2023-10-09T09:34:43;22.60;68.30
23499;DHT22;11926;48.120;11.562;2023-10-09T09:37:34;22.70;67.50
23499;DHT22;11926;48.120;11.562;2023-10-09T09:40:37;22.80;67.60
23499;DHT22;11926;48.120;11.562;2023-10-09T09:43:29;22.90;66.70
23499;DHT22;11926;48.120;11.562;2023-10-09T09:46:21;23.00;66.20
23499;DHT22;11926;48.120;11.562;2023-10-09T09:49:14;23.00;65.70
23499;DHT22;11926;48.120;11.562;2023-10-09T09:52:08;23.10;65.50
23499;DHT22;11926;48.120;11.562;2023-10-09T09:54:57;23.10;65.50
23499;DHT22;11926;48.120;11.562;2023-10-09T09:57:48;23.10;65.00
23499;DHT22;11926;48.120;11.562;2023-10-09T10:00:39;23.10;64.50
23499;DHT22;11926;48.120;11.562;2023-10-09T10:03:39;23.10;65.40
23499;DHT22;11926;48.120;11.562;2023-10-09T10:06:30;23.20;64.90
23499;DHT22;11926;48.120;11.562;2023-10-09T10:09:35;23.30;64.20
23499;DHT22;11926;48.120;11.562;2023-10-09T10:12:49;23.40;63.70
23499;DHT22;11926;48.120;11.562;2023-10-09T10:16:05;23.40;63.00
23499;DHT22;11926;48.120;11.562;2023-10-09T10:19:00;23.40;62.90
23499;DHT22;11926;48.120;11.562;2023-10-09T10:22:25;23.40;63.70
23499;DHT22;11926;48.120;11.562;2023-10-09T10:25:33;23.60;62.30
23499;DHT22;11926;48.120;11.562;2023-10-09T10:28:27;23.90;61.80
23499;DHT22;11926;48.120;11.562;2023-10-09T10:31:57;24.00;61.30
23499;DHT22;11926;48.120;11.562;2023-10-09T10:34:53;24.30;61.10
23499;DHT22;11926;48.120;11.562;2023-10-09T10:37:44;24.60;60.70
23499;DHT22;11926;48.120;11.562;2023-10-09T10:40:37;24.80;59.40
23499;DHT22;11926;48.120;11.562;2023-10-09T10:43:32;25.00;58.40
23499;DHT22;11926;48.120;11.562;2023-10-09T10:46:32;25.00;57.90
23499;DHT22;11926;48.120;11.562;2023-10-09T10:49:29;24.90;57.60
23499;DHT22;11926;48.120;11.562;2023-10-09T10:52:22;24.80;57.70
23499;DHT22;11926;48.120;11.562;2023-10-09T10:55:21;24.80;57.70
23499;DHT22;11926;48.120;11.562;2023-10-09T10:58:34;24.80;57.70
23499;DHT22;11926;48.120;11.562;2023-10-09T11:01:34;24.70;57.30
23499;DHT22;11926;48.120;11.562;2023-10-09T11:04:38;24.70;57.20
23499;DHT22;11926;48.120;11.562;2023-10-09T11:07:28;24.80;57.00
23499;DHT22;11926;48.120;11.562;2023-10-09T11:10:22;24.80;57.10
23499;DHT22;11926;48.120;11.562;2023-10-09T11:13:21;24.90;56.90
23499;DHT22;11926;48.120;11.562;2023-10-09T11:16:38;25.00;56.70
23499;DHT22;11926;48.120;11.562;2023-10-09T11:19:29;25.10;56.60
23499;DHT22;11926;48.120;11.562;2023-10-09T11:22:19;25.10;55.70
23499;DHT22;11926;48.120;11.562;2023-10-09T11:25:15;25.20;55.80
23499;DHT22;11926;48.120;11.562;2023-10-09T11:28:19;25.30;55.10
23499;DHT22;11926;48.120;11.562;2023-10-09T11:31:28;25.50;54.40
23499;DHT22;11926;48.120;11.562;2023-10-09T11:34:18;25.70;54.50
23499;DHT22;11926;48.120;11.562;2023-10-09T11:37:15;26.00;54.40
23499;DHT22;11926;48.120;11.562;2023-10-09T11:40:32;26.20;53.10
23499;DHT22;11926;48.120;11.562;2023-10-09T11:43:49;26.30;52.10
23499;DHT22;11926;48.120;11.562;2023-10-09T11:46:39;26.30;52.90
23499;DHT22;11926;48.120;11.562;2023-10-09T11:49:35;26.40;52.90
23499;DHT22;11926;48.120;11.562;2023-10-09T11:52:31;26.60;51.70
23499;DHT22;11926;48.120;11.562;2023-10-09T11:55:23;26.70;50.40
23499;DHT22;11926;48.120;11.562;2023-10-09T11:58:12;26.70;50.30
23499;DHT22;11926;48.120;11.562;2023-10-09T12:00:59;26.70;49.80
23499;DHT22;11926;48.120;11.562;2023-10-09T12:04:02;26.50;50.00
23499;DHT22;11926;48.120;11.562;2023-10-09T12:06:49;26.30;50.20
23499;DHT22;11926;48.120;11.562;2023-10-09T12:09:44;26.20;50.10
23499;DHT22;11926;48.120;11.562;2023-10-09T12:12:33;26.10;50.70
23499;DHT22;11926;48.120;11.562;2023-10-09T12:15:22;26.10;50.50
23499;DHT22;11926;48.120;11.562;2023-10-09T12:18:09;26.10;50.50
23499;DHT22;11926;48.120;11.562;2023-10-09T12:21:01;26.00;49.80
23499;DHT22;11926;48.120;11.562;2023-10-09T12:23:50;25.80;49.80
23499;DHT22;11926;48.120;11.562;2023-10-09T12:26:47;25.80;50.20
23499;DHT22;11926;48.120;11.562;2023-10-09T12:29:39;25.70;50.20
23499;DHT22;11926;48.120;11.562;2023-10-09T12:32:36;25.60;50.20
23499;DHT22;11926;48.120;11.562;2023-10-09T12:35:24;25.50;51.10
23499;DHT22;11926;48.120;11.562;2023-10-09T12:38:13;25.40;51.10
23499;DHT22;11926;48.120;11.562;2023-10-09T12:41:06;25.40;51.30
23499;DHT22;11926;48.120;11.562;2023-10-09T12:44:05;25.20;50.90
23499;DHT22;11926;48.120;11.562;2023-10-09T12:46:58;25.00;51.30
23499;DHT22;11926;48.120;11.562;2023-10-09T12:49:51;24.90;51.50
23499;DHT22;11926;48.120;11.562;2023-10-09T12:52:43;24.80;51.90
23499;DHT22;11926;48.120;11.562;2023-10-09T12:55:36;24.70;52.70
23499;DHT22;11926;48.120;11.562;2023-10-09T12:58:26;24.60;52.60
23499;DHT22;11926;48.120;11.562;2023-10-09T13:01:14;24.50;52.70
23499;DHT22;11926;48.120;11.562;2023-10-09T13:04:01;24.40;53.20
23499;DHT22;11926;48.120;11.562;2023-10-09T13:06:59;24.40;53.50
23499;DHT22;11926;48.120;11.562;2023-10-09T13:09:49;24.30;54.00
23499;DHT22;11926;48.120;11.562;2023-10-09T13:12:50;24.30;54.40
23499;DHT22;11926;48.120;11.562;2023-10-09T13:15:41;24.30;54.70
23499;DHT22;11926;48.120;11.562;2023-10-09T13:18:28;24.20;54.70
23499;DHT22;11926;48.120;11.562;2023-10-09T13:21:17;24.20;54.70
23499;DHT22;11926;48.120;11.562;2023-10-09T13:24:06;24.10;55.00
23499;DHT22;11926;48.120;11.562;2023-10-09T13:27:00;24.00;55.00
23499;DHT22;11926;48.120;11.562;2023-10-09T13:29:50;24.00;55.50
23499;DHT22;11926;48.120;11.562;2023-10-09T13:32:38;23.90;55.80
23499;DHT22;11926;48.120;11.562;2023-10-09T13:35:28;23.90;56.10
23499;DHT22;11926;48.120;11.562;2023-10-09T13:38:23;23.90;56.30
23499;DHT22;11926;48.120;11.562;2023-10-09T13:41:14;23.80;56.50
23499;DHT22;11926;48.120;11.562;2023-10-09T13:44:03;23.80;56.60
23499;DHT22;11926;48.120;11.562;2023-10-09T13:46:51;23.70;56.60
23499;DHT22;11926;48.120;11.562;2023-10-09T13:49:38;23.60;56.80
23499;DHT22;11926;48.120;11.562;2023-10-09T13:52:28;23.60;56.80
23499;DHT22;11926;48.120;11.562;2023-10-09T13:55:29;23.50;57.00
23499;DHT22;11926;48.120;11.562;2023-10-09T13:58:19;23.50;57.10
23499;DHT22;11926;48.120;11.562;2023-10-09T14:01:07;23.30;59.50
23499;DHT22;11926;48.120;11.562;2023-10-09T14:03:58;23.20;63.50
23499;DHT22;11926;48.120;11.562;2023-10-09T14:06:46;23.10;63.70
23499;DHT22;11926;48.120;11.562;2023-10-09T14:09:33;23.00;68.00
23499;DHT22;11926;48.120;11.562;2023-10-09T14:12:24;22.80;69.50
23499;DHT22;11926;48.120;11.562;2023-10-09T14:15:16;22.70;70.10
23499;DHT22;11926;48.120;11.562;2023-10-09T14:18:04;22.50;70.30
23499;DHT22;11926;48.120;11.562;2023-10-09T14:20:54;22.30;71.30
23499;DHT22;11926;48.120;11.562;2023-10-09T14:23:42;22.10;73.00
23499;DHT22;11926;48.120;11.562;2023-10-09T14:26:32;22.00;72.70
23499;DHT22;11926;48.120;11.562;2023-10-09T14:29:20;21.90;72.70
23499;DHT22;11926;48.120;11.562;2023-10-09T14:32:12;21.90;72.90
23499;DHT22;11926;48.120;11.562;2023-10-09T14:35:00;21.80;74.20
23499;DHT22;11926;48.120;11.562;2023-10-09T14:37:48;21.80;74.70
23499;DHT22;11926;48.120;11.562;2023-10-09T14:40:35;21.80;75.50
23499;DHT22;11926;48.120;11.562;2023-10-09T14:43:27;21.80;77.50
23499;DHT22;11926;48.120;11.562;2023-10-09T14:46:20;21.90;79.20
23499;DHT22;11926;48.120;11.562;2023-10-09T14:49:13;21.80;79.80
23499;DHT22;11926;48.120;11.562;2023-10-09T14:52:01;21.80;80.80
23499;DHT22;11926;48.120;11.562;2023-10-09T14:54:48;21.80;81.00
23499;DHT22;11926;48.120;11.562;2023-10-09T14:57:36;21.80;80.80
23499;DHT22;11926;48.120;11.562;2023-10-09T15:00:25;21.70;80.80
23499;DHT22;11926;48.120;11.562;2023-10-09T15:03:13;21.70;81.70
23499;DHT22;11926;48.120;11.562;2023-10-09T15:06:03;21.60;81.40
23499;DHT22;11926;48.120;11.562;2023-10-09T15:08:54;21.60;80.70
23499;DHT22;11926;48.120;11.562;2023-10-09T15:11:41;21.60;80.30
23499;DHT22;11926;48.120;11.562;2023-10-09T15:14:29;21.50;80.80
23499;DHT22;11926;48.120;11.562;2023-10-09T15:17:17;21.50;80.70
23499;DHT22;11926;48.120;11.562;2023-10-09T15:20:06;21.50;81.50
23499;DHT22;11926;48.120;11.562;2023-10-09T15:23:01;21.50;81.10
23499;DHT22;11926;48.120;11.562;2023-10-09T15:25:48;21.50;81.10
23499;DHT22;11926;48.120;11.562;2023-10-09T15:28:38;21.50;81.30
23499;DHT22;11926;48.120;11.562;2023-10-09T15:31:27;21.40;81.10
23499;DHT22;11926;48.120;11.562;2023-10-09T15:34:17;21.40;81.10
23499;DHT22;11926;48.120;11.562;2023-10-09T15:37:07;21.40;81.80
23499;DHT22;11926;48.120;11.562;2023-10-09T15:39:56;21.40;82.30
23499;DHT22;11926;48.120;11.562;2023-10-09T15:42:44;21.30;80.90
23499;DHT22;11926;48.120;11.562;2023-10-09T15:45:41;21.30;80.40
23499;DHT22;11926;48.120;11.562;2023-10-09T15:48:30;21.20;79.50
23499;DHT22;11926;48.120;11.562;2023-10-09T15:51:19;21.20;78.30
23499;DHT22;11926;48.120;11.562;2023-10-09T15:54:08;21.10;80.40
23499;DHT22;11926;48.120;11.562;2023-10-09T15:56:59;21.10;80.90
23499;DHT22;11926;48.120;11.562;2023-10-09T15:59:57;21.10;81.00
23499;DHT22;11926;48.120;11.562;2023-10-09T16:02:47;21.00;82.40
23499;DHT22;11926;48.120;11.562;2023-10-09T16:05:36;21.00;80.40
23499;DHT22;11926;48.120;11.562;2023-10-09T16:08:23;20.90;80.10
23499;DHT22;11926;48.120;11.562;2023-10-09T16:11:17;20.90;79.20
23499;DHT22;11926;48.120;11.562;2023-10-09T16:14:05;20.80;78.90
23499;DHT22;11926;48.120;11.562;2023-10-09T16:16:55;20.70;78.30
23499;DHT22;11926;48.120;11.562;2023-10-09T16:19:43;20.60;78.10
23499;DHT22;11926;48.120;11.562;2023-10-09T16:22:34;20.50;77.80
23499;DHT22;11926;48.120;11.562;2023-10-09T16:25:21;20.50;78.00
23499;DHT22;11926;48.120;11.562;2023-10-09T16:28:10;20.40;77.70
23499;DHT22;11926;48.120;11.562;2023-10-09T16:30:59;20.40;77.40
23499;DHT22;11926;48.120;11.562;2023-10-09T16:33:46;20.30;77.80
23499;DHT22;11926;48.120;11.562;2023-10-09T16:36:34;20.30;77.90
23499;DHT22;11926;48.120;11.562;2023-10-09T16:39:22;20.20;77.40
23499;DHT22;11926;48.120;11.562;2023-10-09T16:42:10;20.20;77.10
23499;DHT22;11926;48.120;11.562;2023-10-09T16:44:59;20.10;77.20
23499;DHT22;11926;48.120;11.562;2023-10-09T16:47:49;20.10;77.00
23499;DHT22;11926;48.120;11.562;2023-10-09T16:50:40;20.00;76.70
23499;DHT22;11926;48.120;11.562;2023-10-09T16:53:33;20.00;76.90
23499;DHT22;11926;48.120;11.562;2023-10-09T16:56:23;20.00;77.40
23499;DHT22;11926;48.120;11.562;2023-10-09T16:59:12;20.00;79.10
23499;DHT22;11926;48.120;11.562;2023-10-09T17:02:00;20.00;80.00
23499;DHT22;11926;48.120;11.562;2023-10-09T17:04:53;20.00;80.90
23499;DHT22;11926;48.120;11.562;2023-10-09T17:07:41;20.00;79.70
23499;DHT22;11926;48.120;11.562;2023-10-09T17:10:33;19.90;80.60
23499;DHT22;11926;48.120;11.562;2023-10-09T17:13:22;19.90;79.10
23499;DHT22;11926;48.120;11.562;2023-10-09T17:16:12;19.90;79.70
23499;DHT22;11926;48.120;11.562;2023-10-09T17:19:03;19.90;79.30
23499;DHT22;11926;48.120;11.562;2023-10-09T17:21:53;19.80;80.40
23499;DHT22;11926;48.120;11.562;2023-10-09T17:24:42;19.80;80.10
23499;DHT22;11926;48.120;11.562;2023-10-09T17:27:31;19.80;80.60
23499;DHT22;11926;48.120;11.562;2023-10-09T17:30:18;19.70;81.80
23499;DHT22;11926;48.120;11.562;2023-10-09T17:33:06;19.70;82.80
23499;DHT22;11926;48.120;11.562;2023-10-09T17:35:53;19.70;83.40
23499;DHT22;11926;48.120;11.562;2023-10-09T17:38:43;19.70;83.60
23499;DHT22;11926;48.120;11.562;2023-10-09T17:41:36;19.60;84.10
23499;DHT22;11926;48.120;11.562;2023-10-09T17:44:23;19.60;84.60
23499;DHT22;11926;48.120;11.562;2023-10-09T17:47:13;19.50;84.30
23499;DHT22;11926;48.120;11.562;2023-10-09T17:50:02;19.50;84.30
23499;DHT22;11926;48.120;11.562;2023-10-09T17:52:50;19.50;84.60
23499;DHT22;11926;48.120;11.562;2023-10-09T17:55:42;19.40;84.80
23499;DHT22;11926;48.120;11.562;2023-10-09T17:58:30;19.40;85.10